createdAt,value
2019-02-11T00:01:39.628Z,98140.00
2019-02-11T00:03:44.604Z,98149.00
2019-02-11T00:05:49.616Z,98153.00
2019-02-11T00:07:54.610Z,98157.00
2019-02-11T00:09:59.632Z,98158.00
2019-02-11T00:12:04.734Z,98165.00
2019-02-11T00:14:09.715Z,98177.00
2019-02-11T00:16:14.644Z,98182.00
2019-02-11T00:18:19.602Z,98183.00
2019-02-11T00:20:24.670Z,98190.00
2019-02-11T00:22:29.597Z,98200.00
2019-02-11T00:24:34.699Z,98203.00
2019-02-11T00:26:39.877Z,98213.00
2019-02-11T00:28:44.868Z,98209.00
2019-02-11T00:30:49.770Z,98226.00
2019-02-11T00:32:55.054Z,98231.00
2019-02-11T00:35:00.042Z,98227.00
2019-02-11T00:37:05.080Z,98238.00
2019-02-11T00:39:10.204Z,98239.00
2019-02-11T00:41:15.309Z,98239.00
2019-02-11T00:43:20.310Z,98252.00
2019-02-11T00:45:25.312Z,98255.00
2019-02-11T00:47:30.233Z,98258.00
2019-02-11T00:49:35.222Z,98265.00
2019-02-11T00:51:40.383Z,98283.00
2019-02-11T00:53:45.311Z,98284.00
2019-02-11T00:55:50.217Z,98291.00
2019-02-11T00:57:55.306Z,98284.00
2019-02-11T01:00:00.332Z,98293.00
2019-02-11T01:02:05.557Z,98308.00
2019-02-11T01:04:29.677Z,98265.00
2019-02-11T01:06:34.747Z,98312.00
2019-02-11T01:08:39.676Z,98319.00
2019-02-11T01:10:44.637Z,98316.00
2019-02-11T01:12:49.676Z,98323.00
2019-02-11T01:14:54.624Z,98328.00
2019-02-11T01:16:59.643Z,98330.00
2019-02-11T01:19:04.693Z,98327.00
2019-02-11T01:21:09.759Z,98334.00
2019-02-11T01:23:14.801Z,98341.00
2019-02-11T01:25:19.872Z,98350.00
2019-02-11T01:27:24.848Z,98361.00
2019-02-11T01:29:29.788Z,98352.00
2019-02-11T01:31:34.756Z,98368.00
2019-02-11T01:33:39.859Z,98373.00
2019-02-11T01:35:44.821Z,98377.00
2019-02-11T01:37:49.823Z,98372.00
2019-02-11T01:39:54.932Z,98379.00
2019-02-11T01:41:59.868Z,98383.00
2019-02-11T01:44:04.841Z,98394.00
2019-02-11T01:46:09.941Z,98396.00
2019-02-11T01:48:14.939Z,98399.00
2019-02-11T01:50:19.866Z,98401.00
2019-02-11T01:52:24.794Z,98400.00
2019-02-11T01:54:29.854Z,98412.00
2019-02-11T01:56:34.955Z,98411.00
2019-02-11T01:58:40.070Z,98416.00
2019-02-11T02:00:44.999Z,98413.00
2019-02-11T02:02:50.022Z,98420.00
2019-02-11T02:04:55.018Z,98432.00
2019-02-11T02:07:00.018Z,98435.00
2019-02-11T02:09:05.658Z,98437.00
2019-02-11T02:11:10.584Z,98435.00
2019-02-11T02:13:15.671Z,98445.00
2019-02-11T02:15:20.755Z,98451.00
2019-02-11T02:17:25.828Z,98451.00
2019-02-11T02:19:30.867Z,98444.00
2019-02-11T02:21:35.797Z,98445.00
2019-02-11T02:23:40.730Z,98448.00
2019-02-11T02:25:45.894Z,98458.00
2019-02-11T02:27:50.871Z,98457.00
2019-02-11T02:29:55.879Z,98446.00
2019-02-11T02:32:00.906Z,98459.00
2019-02-11T02:34:06.024Z,98460.00
2019-02-11T02:36:11.033Z,98465.00
2019-02-11T02:38:16.002Z,98471.00
2019-02-11T02:40:21.006Z,98477.00
2019-02-11T02:42:26.041Z,98470.00
2019-02-11T02:44:30.961Z,98468.00
2019-02-11T02:46:35.958Z,98482.00
2019-02-11T02:48:41.071Z,98478.00
2019-02-11T02:50:46.138Z,98483.00
2019-02-11T02:52:51.280Z,98481.00
2019-02-11T02:54:56.269Z,98482.00
2019-02-11T02:57:01.207Z,98482.00
2019-02-11T02:59:06.204Z,98504.00
2019-02-11T03:01:11.183Z,98503.00
2019-02-11T03:03:16.215Z,98511.00
2019-02-11T03:05:21.118Z,98517.00
2019-02-11T03:07:26.243Z,98523.00
2019-02-11T03:09:31.369Z,98519.00
2019-02-11T03:11:36.437Z,98522.00
2019-02-11T03:13:41.578Z,98523.00
2019-02-11T03:15:46.590Z,98527.00
2019-02-11T03:17:51.556Z,98522.00
2019-02-11T03:19:56.581Z,98527.00
2019-02-11T03:22:01.606Z,98520.00
2019-02-11T03:24:06.694Z,98534.00
2019-02-11T03:26:11.804Z,98529.00
2019-02-11T03:28:16.725Z,98522.00
2019-02-11T03:30:21.628Z,98545.00
2019-02-11T03:32:26.671Z,98543.00
2019-02-11T03:34:31.614Z,98540.00
2019-02-11T03:36:36.755Z,98544.00
2019-02-11T03:38:42.883Z,98537.00
2019-02-11T03:40:47.807Z,98548.00
2019-02-11T03:42:53.010Z,98560.00
2019-02-11T03:44:58.094Z,98573.00
2019-02-11T03:47:03.215Z,98581.00
2019-02-11T03:49:08.239Z,98576.00
2019-02-11T03:51:13.270Z,98577.00
2019-02-11T03:53:18.346Z,98599.00
2019-02-11T03:55:23.465Z,98608.00
2019-02-11T03:57:28.683Z,98614.00
2019-02-11T03:59:34.157Z,98607.00
2019-02-11T04:01:39.177Z,98624.00
2019-02-11T04:03:44.132Z,98624.00
2019-02-11T04:05:49.138Z,98623.00
2019-02-11T04:07:54.280Z,98630.00
2019-02-11T04:09:59.377Z,98639.00
2019-02-11T04:12:04.488Z,98641.00
2019-02-11T04:14:09.492Z,98650.00
2019-02-11T04:16:14.486Z,98649.00
2019-02-11T04:18:19.504Z,98653.00
2019-02-11T04:20:24.516Z,98632.00
2019-02-11T04:22:29.610Z,98674.00
2019-02-11T04:24:34.683Z,98672.00
2019-02-11T04:26:39.705Z,98676.00
2019-02-11T04:28:44.724Z,98686.00
2019-02-11T04:30:49.633Z,98690.00
2019-02-11T04:32:54.644Z,98702.00
2019-02-11T04:34:59.635Z,98691.00
2019-02-11T04:37:04.628Z,98703.00
2019-02-11T04:39:09.592Z,98709.00
2019-02-11T04:41:14.585Z,98716.00
2019-02-11T04:43:19.606Z,98719.00
2019-02-11T04:45:24.655Z,98718.00
2019-02-11T04:47:29.620Z,98724.00
2019-02-11T04:49:34.623Z,98717.00
2019-02-11T04:51:39.631Z,98728.00
2019-02-11T04:53:44.721Z,98733.00
2019-02-11T04:55:49.740Z,98729.00
2019-02-11T04:57:54.674Z,98736.00
2019-02-11T04:59:59.648Z,98732.00
2019-02-11T05:02:04.789Z,98743.00
2019-02-11T05:04:09.720Z,98756.00
2019-02-11T05:06:14.723Z,98762.00
2019-02-11T05:08:19.664Z,98761.00
2019-02-11T05:10:24.665Z,98780.00
2019-02-11T05:12:29.598Z,98764.00
2019-02-11T05:14:43.201Z,98774.00
2019-02-11T05:16:41.651Z,98773.00
2019-02-11T05:18:46.648Z,98780.00
2019-02-11T05:20:51.640Z,98794.00
2019-02-11T05:22:56.554Z,98800.00
2019-02-11T05:25:01.661Z,98795.00
2019-02-11T05:27:06.621Z,98797.00
2019-02-11T05:29:11.641Z,98810.00
2019-02-11T05:31:16.647Z,98809.00
2019-02-11T05:33:21.702Z,98813.00
2019-02-11T05:35:26.762Z,98812.00
2019-02-11T05:37:31.759Z,98813.00
2019-02-11T05:39:36.768Z,98816.00
2019-02-11T05:41:41.683Z,98818.00
2019-02-11T05:43:46.811Z,98825.00
2019-02-11T05:45:51.734Z,98816.00
2019-02-11T05:47:56.728Z,98829.00
2019-02-11T05:50:01.820Z,98831.00
2019-02-11T05:52:06.788Z,98833.00
2019-02-11T05:54:11.760Z,98834.00
2019-02-11T05:56:16.678Z,98845.00
2019-02-11T05:58:21.692Z,98853.00
2019-02-11T06:00:26.856Z,98846.00
2019-02-11T06:02:31.842Z,98837.00
2019-02-11T06:04:36.813Z,98838.00
2019-02-11T06:06:41.886Z,98846.00
2019-02-11T06:08:46.834Z,98849.00
2019-02-11T06:10:51.887Z,98853.00
2019-02-11T06:12:56.838Z,98858.00
2019-02-11T06:15:04.223Z,98860.00
2019-02-11T06:17:08.659Z,98872.00
2019-02-11T06:19:13.682Z,98865.00
2019-02-11T06:21:18.606Z,98874.00
2019-02-11T06:23:23.549Z,98872.00
2019-02-11T06:25:28.548Z,98882.00
2019-02-11T06:27:33.563Z,98889.00
2019-02-11T06:29:38.606Z,98904.00
2019-02-11T06:31:43.572Z,98911.00
2019-02-11T06:33:48.779Z,98911.00
2019-02-11T06:35:53.729Z,98914.00
2019-02-11T06:37:58.729Z,98927.00
2019-02-11T06:40:03.960Z,98933.00
2019-02-11T06:42:09.086Z,98941.00
2019-02-11T06:44:14.104Z,98942.00
2019-02-11T06:46:19.029Z,98953.00
2019-02-11T06:48:24.031Z,98961.00
2019-02-11T06:50:29.001Z,98961.00
2019-02-11T06:52:33.988Z,98970.00
2019-02-11T06:54:39.063Z,98968.00
2019-02-11T06:56:44.055Z,98976.00
2019-02-11T06:58:48.996Z,98986.00
2019-02-11T07:00:53.908Z,98983.00
2019-02-11T07:02:58.962Z,98990.00
2019-02-11T07:05:04.055Z,98999.00
2019-02-11T07:07:08.965Z,98998.00
2019-02-11T07:09:13.983Z,99015.00
2019-02-11T07:11:18.967Z,99027.00
2019-02-11T07:13:23.967Z,99027.00
2019-02-11T07:15:29.051Z,99034.00
2019-02-11T07:17:34.167Z,99041.00
2019-02-11T07:19:39.246Z,99035.00
2019-02-11T07:21:44.234Z,99056.00
2019-02-11T07:23:49.309Z,99061.00
2019-02-11T07:25:54.563Z,99071.00
2019-02-11T07:27:59.667Z,99065.00
2019-02-11T07:30:05.347Z,99073.00
2019-02-11T07:32:10.480Z,99086.00
2019-02-11T07:34:15.418Z,99087.00
2019-02-11T07:36:20.467Z,99081.00
2019-02-11T07:38:25.419Z,99096.00
2019-02-11T07:40:30.504Z,99098.00
2019-02-11T07:42:50.328Z,99098.00
2019-02-11T07:45:01.681Z,99108.00
2019-02-11T07:47:07.134Z,99107.00
2019-02-11T07:49:12.337Z,99108.00
2019-02-11T07:51:17.336Z,99113.00
2019-02-11T07:53:22.341Z,99104.00
2019-02-11T07:55:27.419Z,99108.00
2019-02-11T07:57:32.405Z,99121.00
2019-02-11T07:59:37.496Z,99132.00
2019-02-11T08:01:42.502Z,99135.00
2019-02-11T08:03:47.495Z,99132.00
2019-02-11T08:05:52.528Z,99138.00
2019-02-11T08:07:57.439Z,99147.00
2019-02-11T08:10:02.378Z,99154.00
2019-02-11T08:12:07.597Z,99155.00
2019-02-11T08:14:12.738Z,99151.00
2019-02-11T08:16:17.764Z,99155.00
2019-02-11T08:18:22.762Z,99158.00
2019-02-11T08:20:27.760Z,99162.00
2019-02-11T08:22:32.754Z,99173.00
2019-02-11T08:24:37.683Z,99183.00
2019-02-11T08:26:42.609Z,99184.00
2019-02-11T08:28:47.612Z,99188.00
2019-02-11T08:30:52.961Z,99192.00
2019-02-11T08:32:57.950Z,99189.00
2019-02-11T08:35:03.038Z,99194.00
2019-02-11T08:37:08.354Z,99200.00
2019-02-11T08:39:13.440Z,99199.00
2019-02-11T08:41:18.370Z,99204.00
2019-02-11T08:43:23.385Z,99213.00
2019-02-11T08:45:28.361Z,99219.00
2019-02-11T08:47:33.506Z,99224.00
2019-02-11T08:49:38.660Z,99224.00
2019-02-11T08:51:43.842Z,99218.00
2019-02-11T08:53:48.862Z,99227.00
2019-02-11T08:55:53.814Z,99227.00
2019-02-11T08:57:58.913Z,99230.00
2019-02-11T09:00:04.172Z,99233.00
2019-02-11T09:02:09.370Z,99240.00
2019-02-11T09:04:19.050Z,99241.00
2019-02-11T09:06:21.165Z,99247.00
2019-02-11T09:08:26.270Z,99239.00
2019-02-11T09:10:31.271Z,99246.00
2019-02-11T09:12:36.283Z,99248.00
2019-02-11T09:14:41.316Z,99254.00
2019-02-11T09:16:46.389Z,99260.00
2019-02-11T09:18:51.430Z,99266.00
2019-02-11T09:20:56.421Z,99267.00
2019-02-11T09:23:01.381Z,99269.00
2019-02-11T09:25:07.941Z,99280.00
2019-02-11T09:27:13.016Z,99286.00
2019-02-11T09:29:17.954Z,99286.00
2019-02-11T09:31:23.005Z,99287.00
2019-02-11T09:33:27.991Z,99295.00
2019-02-11T09:35:33.054Z,99299.00
2019-02-11T09:37:38.185Z,99310.00
2019-02-11T09:39:43.358Z,99300.00
2019-02-11T09:41:48.459Z,99308.00
2019-02-11T09:43:53.691Z,99311.00
2019-02-11T09:46:03.837Z,99309.00
2019-02-11T09:48:06.036Z,99316.00
2019-02-11T09:50:30.801Z,99319.00
2019-02-11T09:52:35.874Z,99323.00
2019-02-11T09:54:40.824Z,99335.00
2019-02-11T09:56:46.712Z,99328.00
2019-02-11T09:58:51.688Z,99335.00
2019-02-11T10:00:56.766Z,99344.00
2019-02-11T10:03:02.003Z,99351.00
2019-02-11T10:05:07.298Z,99354.00
2019-02-11T10:07:12.279Z,99364.00
2019-02-11T10:09:17.291Z,99362.00
2019-02-11T10:11:22.429Z,99365.00
2019-02-11T10:13:27.430Z,99379.00
2019-02-11T10:15:32.557Z,99381.00
2019-02-11T10:17:37.571Z,99377.00
2019-02-11T10:19:42.841Z,99372.00
2019-02-11T10:21:47.845Z,99384.00
2019-02-11T10:23:52.867Z,99380.00
2019-02-11T10:25:57.968Z,99380.00
2019-02-11T10:28:09.773Z,99378.00
2019-02-11T10:30:15.548Z,99396.00
2019-02-11T10:32:20.657Z,99391.00
2019-02-11T10:34:25.643Z,99392.00
2019-02-11T10:36:30.638Z,99399.00
2019-02-11T10:38:36.743Z,99392.00
2019-02-11T10:40:41.972Z,99400.00
2019-02-11T10:42:47.102Z,99404.00
2019-02-11T10:44:52.028Z,99406.00
2019-02-11T10:46:57.320Z,99411.00
2019-02-11T10:49:02.586Z,99413.00
2019-02-11T10:51:07.648Z,99414.00
2019-02-11T10:53:12.774Z,99420.00
2019-02-11T10:55:18.252Z,99415.00
2019-02-11T10:57:23.357Z,99414.00
2019-02-11T10:59:28.465Z,99417.00
2019-02-11T11:01:33.614Z,99423.00
2019-02-11T11:03:38.601Z,99428.00
2019-02-11T11:05:43.610Z,99440.00
2019-02-11T11:07:48.779Z,99435.00
2019-02-11T11:09:54.313Z,99436.00
2019-02-11T11:11:59.372Z,99441.00
2019-02-11T11:14:04.456Z,99457.00
2019-02-11T11:16:09.588Z,99455.00
2019-02-11T11:18:14.697Z,99462.00
2019-02-11T11:20:19.818Z,99478.00
2019-02-11T11:22:24.955Z,99472.00
2019-02-11T11:24:30.003Z,99475.00
2019-02-11T11:26:35.086Z,99481.00
2019-02-11T11:28:40.099Z,99483.00
2019-02-11T11:30:45.333Z,99485.00
2019-02-11T11:32:50.486Z,99499.00
2019-02-11T11:34:55.574Z,99495.00
2019-02-11T11:37:00.667Z,99500.00
2019-02-11T11:39:15.371Z,99510.00
2019-02-11T11:41:20.505Z,99511.00
2019-02-11T11:43:44.612Z,99523.00
2019-02-11T11:45:49.765Z,99524.00
2019-02-11T11:47:54.802Z,99520.00
2019-02-11T11:49:59.946Z,99532.00
2019-02-11T11:52:05.015Z,99543.00
2019-02-11T11:54:10.100Z,99542.00
2019-02-11T11:56:15.188Z,99550.00
2019-02-11T11:58:20.601Z,99546.00
2019-02-11T12:00:27.787Z,99545.00
2019-02-11T12:02:32.761Z,99549.00
2019-02-11T12:04:37.878Z,99553.00
2019-02-11T12:06:42.787Z,99562.00
2019-02-11T12:08:47.704Z,99564.00
2019-02-11T12:10:52.685Z,99555.00
2019-02-11T12:12:57.700Z,99578.00
2019-02-11T12:15:02.688Z,99578.00
2019-02-11T12:17:07.774Z,99577.00
2019-02-11T12:19:12.869Z,99582.00
2019-02-11T12:21:17.933Z,99600.00
2019-02-11T12:23:22.966Z,99590.00
2019-02-11T12:25:31.568Z,99583.00
2019-02-11T12:27:36.536Z,99580.00
2019-02-11T12:29:41.544Z,99580.00
2019-02-11T12:31:46.619Z,99582.00
2019-02-11T12:33:51.611Z,99584.00
2019-02-11T12:35:56.613Z,99592.00
2019-02-11T12:38:01.800Z,99595.00
2019-02-11T12:40:08.358Z,99581.00
2019-02-11T12:42:13.387Z,99591.00
2019-02-11T12:44:18.489Z,99600.00
2019-02-11T12:46:23.572Z,99606.00
2019-02-11T12:48:28.679Z,99600.00
2019-02-11T12:50:33.785Z,99607.00
2019-02-11T12:52:38.986Z,99615.00
2019-02-11T12:54:44.012Z,99620.00
2019-02-11T12:56:49.012Z,99627.00
2019-02-11T12:58:54.357Z,99625.00
2019-02-11T13:00:59.461Z,99631.00
2019-02-11T13:04:02.332Z,99637.00
2019-02-11T13:06:07.489Z,99650.00
2019-02-11T13:08:12.475Z,99657.00
2019-02-11T13:12:45.994Z,99659.00
2019-02-11T13:14:51.970Z,99650.00
2019-02-11T13:16:56.957Z,99678.00
2019-02-11T13:19:01.955Z,99669.00
2019-02-11T13:21:07.094Z,99663.00
2019-02-11T13:23:12.356Z,99664.00
2019-02-11T13:25:18.211Z,99667.00
2019-02-11T13:27:23.389Z,99662.00
2019-02-11T13:29:28.324Z,99664.00
2019-02-11T13:31:36.806Z,99666.00
2019-02-11T13:33:44.075Z,99669.00
2019-02-11T13:35:49.678Z,99680.00
2019-02-11T13:37:56.254Z,99690.00
2019-02-11T13:40:01.802Z,99695.00
2019-02-11T13:42:06.882Z,99684.00
2019-02-11T13:44:12.341Z,99695.00
2019-02-11T13:46:17.759Z,99695.00
2019-02-11T13:48:22.913Z,99704.00
2019-02-11T13:50:28.442Z,99713.00
2019-02-11T13:52:33.901Z,99720.00
2019-02-11T13:54:38.896Z,99725.00
2019-02-11T13:56:43.930Z,99741.00
2019-02-11T13:58:52.157Z,99729.00
2019-02-11T14:00:56.237Z,99737.00
2019-02-11T14:03:10.430Z,99741.00
2019-02-11T14:05:15.549Z,99733.00
2019-02-11T14:07:21.313Z,99738.00
2019-02-11T14:09:26.884Z,99744.00
2019-02-11T14:11:31.793Z,99751.00
2019-02-11T14:13:37.321Z,99751.00
2019-02-11T14:15:42.408Z,99750.00
2019-02-11T14:17:47.715Z,99763.00
2019-02-11T14:19:52.551Z,99765.00
2019-02-11T14:21:57.764Z,99768.00
2019-02-11T14:24:02.999Z,99770.00
2019-02-11T14:26:08.241Z,99776.00
2019-02-11T14:28:13.517Z,99776.00
2019-02-11T14:30:20.111Z,99783.00
2019-02-11T14:32:25.067Z,99778.00
2019-02-11T14:34:30.610Z,99780.00
2019-02-11T14:36:35.890Z,99784.00
2019-02-11T14:38:40.817Z,99796.00
2019-02-11T14:40:45.866Z,99800.00
2019-02-11T14:42:51.324Z,99806.00
2019-02-11T14:44:56.172Z,99812.00
2019-02-11T14:47:01.167Z,99810.00
2019-02-11T14:49:06.284Z,99803.00
2019-02-11T14:51:11.409Z,99806.00
2019-02-11T14:53:16.812Z,99806.00
2019-02-11T14:55:21.934Z,99807.00
2019-02-11T14:57:27.072Z,99811.00
2019-02-11T14:59:32.258Z,99817.00
2019-02-11T15:01:37.133Z,99824.00
2019-02-11T15:03:42.224Z,99828.00
2019-02-11T15:05:47.974Z,99836.00
2019-02-11T15:07:52.835Z,99840.00
2019-02-11T15:09:58.206Z,99837.00
2019-02-11T15:12:03.442Z,99833.00
2019-02-11T15:14:08.329Z,99846.00
2019-02-11T15:16:13.763Z,99849.00
2019-02-11T15:18:19.629Z,99843.00
2019-02-11T15:20:25.707Z,99851.00
2019-02-11T15:22:31.262Z,99844.00
2019-02-11T15:24:36.472Z,99854.00
2019-02-11T15:26:41.350Z,99867.00
2019-02-11T15:28:46.465Z,99885.00
2019-02-11T15:30:51.604Z,99887.00
2019-02-11T15:32:56.997Z,99896.00
2019-02-11T15:35:02.181Z,99898.00
2019-02-11T15:37:07.469Z,99903.00
2019-02-11T15:39:12.694Z,99893.00
2019-02-11T15:41:17.847Z,99904.00
2019-02-11T15:43:23.019Z,99917.00
2019-02-11T15:45:28.562Z,99915.00
2019-02-11T15:47:33.409Z,99916.00
2019-02-11T15:49:38.562Z,99928.00
2019-02-11T15:51:43.842Z,99936.00
2019-02-11T15:53:49.380Z,99947.00
2019-02-11T15:55:54.550Z,99936.00
2019-02-11T15:57:59.484Z,99957.00
2019-02-11T16:00:05.865Z,99945.00
2019-02-11T16:02:10.765Z,99959.00
2019-02-11T16:04:16.277Z,99966.00
2019-02-11T16:06:21.858Z,99978.00
2019-02-11T16:08:27.117Z,99971.00
2019-02-11T16:10:31.982Z,99975.00
2019-02-11T16:12:37.291Z,99990.00
2019-02-11T16:14:42.164Z,99994.00
2019-02-11T16:16:47.320Z,100005.00
2019-02-11T16:18:52.783Z,100013.00
2019-02-11T16:21:00.844Z,100017.00
2019-02-11T16:23:06.363Z,100019.00
2019-02-11T16:25:12.384Z,100022.00
2019-02-11T16:27:17.632Z,100041.00
2019-02-11T16:29:23.402Z,100047.00
2019-02-11T16:31:28.277Z,100057.00
2019-02-11T16:33:33.859Z,100056.00
2019-02-11T16:35:39.569Z,100061.00
2019-02-11T16:37:45.350Z,100077.00
2019-02-11T16:39:51.022Z,100080.00
2019-02-11T16:41:56.864Z,100094.00
2019-02-11T16:44:02.443Z,100102.00
2019-02-11T16:46:07.686Z,100121.00
2019-02-11T16:48:12.735Z,100117.00
2019-02-11T16:50:17.756Z,100127.00
2019-02-11T16:52:23.363Z,100134.00
2019-02-11T16:54:29.329Z,100136.00
2019-02-11T16:56:34.485Z,100132.00
2019-02-11T16:58:39.737Z,100149.00
2019-02-11T17:00:44.934Z,100165.00
2019-02-11T17:02:50.255Z,100171.00
2019-02-11T17:04:55.556Z,100176.00
2019-02-11T17:07:03.225Z,100175.00
2019-02-11T17:09:09.093Z,100174.00
2019-02-11T17:11:14.757Z,100177.00
2019-02-11T17:13:19.979Z,100182.00
2019-02-11T17:15:25.838Z,100194.00
2019-02-11T17:17:31.338Z,100196.00
2019-02-11T17:19:36.603Z,100205.00
2019-02-11T17:21:41.873Z,100210.00
2019-02-11T17:23:47.202Z,100208.00
2019-02-11T17:25:52.497Z,100216.00
2019-02-11T17:27:57.723Z,100219.00
2019-02-11T17:30:03.245Z,100214.00
2019-02-11T17:32:08.650Z,100226.00
2019-02-11T17:34:13.817Z,100232.00
2019-02-11T17:36:19.612Z,100243.00
2019-02-11T17:38:25.045Z,100253.00
2019-02-11T17:40:30.585Z,100253.00
2019-02-11T17:42:35.475Z,100270.00
2019-02-11T17:44:40.690Z,100260.00
2019-02-11T17:46:45.842Z,100272.00
2019-02-11T17:48:50.813Z,100279.00
2019-02-11T17:50:56.562Z,100285.00
2019-02-11T17:53:03.420Z,100288.00
2019-02-11T17:55:10.559Z,100295.00
2019-02-11T17:57:15.789Z,100298.00
2019-02-11T17:59:20.671Z,100316.00
2019-02-11T18:01:26.030Z,100306.00
2019-02-11T18:03:31.250Z,100298.00
2019-02-11T18:05:36.531Z,100297.00
2019-02-11T18:07:41.979Z,100308.00
2019-02-11T18:09:47.236Z,100304.00
2019-02-11T18:11:52.925Z,100301.00
2019-02-11T18:13:58.512Z,100299.00
2019-02-11T18:16:03.725Z,100305.00
2019-02-11T18:18:09.187Z,100308.00
2019-02-11T18:20:14.231Z,100315.00
2019-02-11T18:22:19.593Z,100323.00
2019-02-11T18:24:24.818Z,100335.00
2019-02-11T18:26:29.954Z,100335.00
2019-02-11T18:28:35.896Z,100345.00
2019-02-11T18:30:41.432Z,100344.00
2019-02-11T18:32:46.687Z,100336.00
2019-02-11T18:35:11.661Z,100349.00
2019-02-11T18:37:17.493Z,100352.00
2019-02-11T18:39:22.593Z,100351.00
2019-02-11T18:41:27.709Z,100343.00
2019-02-11T18:43:32.915Z,100361.00
2019-02-11T18:45:38.235Z,100354.00
2019-02-11T18:47:43.520Z,100365.00
2019-02-11T18:49:48.370Z,100368.00
2019-02-11T18:51:53.529Z,100387.00
2019-02-11T18:53:59.092Z,100379.00
2019-02-11T18:56:04.310Z,100381.00
2019-02-11T18:58:13.210Z,100390.00
2019-02-11T19:00:19.226Z,100389.00
2019-02-11T19:02:24.470Z,100391.00
2019-02-11T19:04:30.069Z,100400.00
2019-02-11T19:06:35.750Z,100405.00
2019-02-11T19:08:41.444Z,100406.00
2019-02-11T19:10:47.385Z,100397.00
2019-02-11T19:12:52.316Z,100402.00
2019-02-11T19:14:57.909Z,100405.00
2019-02-11T19:17:03.053Z,100403.00
2019-02-11T19:19:08.223Z,100402.00
2019-02-11T19:21:13.138Z,100414.00
2019-02-11T19:23:18.378Z,100424.00
2019-02-11T19:25:23.562Z,100435.00
2019-02-11T19:27:29.113Z,100418.00
2019-02-11T19:29:34.630Z,100421.00
2019-02-11T19:31:39.887Z,100401.00
2019-02-11T19:33:45.364Z,100402.00
2019-02-11T19:35:50.554Z,100399.00
2019-02-11T19:37:55.713Z,100396.00
2019-02-11T19:40:01.278Z,100410.00
2019-02-11T19:42:06.652Z,100406.00
2019-02-11T19:44:11.657Z,100397.00
2019-02-11T19:46:16.858Z,100397.00
2019-02-11T19:48:22.033Z,100413.00
2019-02-11T19:50:27.693Z,100408.00
2019-02-11T19:52:33.042Z,100409.00
2019-02-11T19:54:38.135Z,100413.00
2019-02-11T19:56:43.025Z,100437.00
2019-02-11T19:58:47.972Z,100456.00
2019-02-11T20:00:52.832Z,100456.00
2019-02-11T20:02:58.565Z,100441.00
2019-02-11T20:05:03.568Z,100433.00
2019-02-11T20:07:08.474Z,100441.00
2019-02-11T20:09:13.344Z,100437.00
2019-02-11T20:11:18.578Z,100452.00
2019-02-11T20:13:23.770Z,100453.00
2019-02-11T20:15:29.030Z,100442.00
2019-02-11T20:17:33.993Z,100443.00
2019-02-11T20:19:38.821Z,100455.00
2019-02-11T20:21:43.680Z,100454.00
2019-02-11T20:23:49.289Z,100449.00
2019-02-11T20:25:55.781Z,100450.00
2019-02-11T20:28:00.883Z,100474.00
2019-02-11T20:30:07.960Z,100480.00
2019-02-11T20:32:13.377Z,100479.00
2019-02-11T20:34:18.640Z,100492.00
2019-02-11T20:36:23.923Z,100494.00
2019-02-11T20:38:28.887Z,100496.00
2019-02-11T20:40:34.235Z,100488.00
2019-02-11T20:42:39.469Z,100496.00
2019-02-11T20:44:44.384Z,100505.00
2019-02-11T20:46:49.532Z,100517.00
2019-02-11T20:48:55.001Z,100520.00
2019-02-11T20:50:59.945Z,100521.00
2019-02-11T20:53:05.239Z,100522.00
2019-02-11T20:55:11.851Z,100521.00
2019-02-11T20:57:27.545Z,100521.00
2019-02-11T20:59:32.854Z,100527.00
2019-02-11T21:01:37.927Z,100540.00
2019-02-11T21:03:42.795Z,100536.00
2019-02-11T21:05:48.115Z,100552.00
2019-02-11T21:07:53.291Z,100549.00
2019-02-11T21:09:58.124Z,100566.00
2019-02-11T21:12:03.262Z,100567.00
2019-02-11T21:14:08.424Z,100568.00
2019-02-11T21:16:13.273Z,100564.00
2019-02-11T21:18:18.442Z,100555.00
2019-02-11T21:20:33.588Z,100559.00
2019-02-11T21:22:39.250Z,100562.00
2019-02-11T21:24:45.747Z,100560.00
2019-02-11T21:26:51.212Z,100570.00
2019-02-11T21:28:57.046Z,100571.00
2019-02-11T21:31:02.907Z,100577.00
2019-02-11T21:33:08.135Z,100573.00
2019-02-11T21:35:13.765Z,100570.00
2019-02-11T21:37:18.618Z,100577.00
2019-02-11T21:39:23.911Z,100579.00
2019-02-11T21:41:28.773Z,100581.00
2019-02-11T21:43:33.966Z,100580.00
2019-02-11T21:45:38.832Z,100586.00
2019-02-11T21:47:43.666Z,100596.00
2019-02-11T21:49:49.018Z,100595.00
2019-02-11T21:51:54.220Z,100603.00
2019-02-11T21:53:59.978Z,100600.00
2019-02-11T21:56:05.691Z,100608.00
2019-02-11T21:58:10.857Z,100602.00
2019-02-11T22:00:19.012Z,100610.00
2019-02-11T22:02:24.236Z,100620.00
2019-02-11T22:04:29.710Z,100624.00
2019-02-11T22:06:36.349Z,100627.00
2019-02-11T22:08:42.150Z,100626.00
2019-02-11T22:10:47.891Z,100627.00
2019-02-11T22:12:52.928Z,100623.00
2019-02-11T22:14:57.845Z,100627.00
2019-02-11T22:17:03.382Z,100622.00
2019-02-11T22:19:08.402Z,100625.00
2019-02-11T22:21:13.390Z,100625.00
2019-02-11T22:23:18.246Z,100624.00
2019-02-11T22:25:23.103Z,100634.00
2019-02-11T22:27:28.143Z,100635.00
2019-02-11T22:29:33.275Z,100629.00
2019-02-11T22:31:38.464Z,100620.00
2019-02-11T22:33:44.286Z,100621.00
2019-02-11T22:35:49.375Z,100620.00
2019-02-11T22:37:54.221Z,100608.00
2019-02-11T22:39:59.153Z,100612.00
2019-02-11T22:42:04.435Z,100601.00
2019-02-11T22:44:10.607Z,100606.00
2019-02-11T22:46:16.687Z,100611.00
2019-02-11T22:48:22.186Z,100613.00
2019-02-11T22:50:27.435Z,100614.00
2019-02-11T22:52:32.365Z,100610.00
2019-02-11T22:54:37.647Z,100619.00
2019-02-11T22:56:43.564Z,100642.00
2019-02-11T22:58:48.799Z,100634.00
2019-02-11T23:01:03.295Z,100649.00
2019-02-11T23:03:08.643Z,100645.00
2019-02-11T23:05:13.903Z,100650.00
2019-02-11T23:07:19.451Z,100653.00
2019-02-11T23:09:24.644Z,100661.00
2019-02-11T23:11:29.848Z,100652.00
2019-02-11T23:13:35.098Z,100652.00
2019-02-11T23:15:40.714Z,100647.00
2019-02-11T23:17:46.216Z,100647.00
2019-02-11T23:19:51.789Z,100663.00
2019-02-11T23:21:56.761Z,100666.00
2019-02-11T23:24:01.883Z,100672.00
2019-02-11T23:26:06.730Z,100683.00
2019-02-11T23:28:11.806Z,100693.00
2019-02-11T23:30:16.975Z,100692.00
2019-02-11T23:32:22.009Z,100688.00
2019-02-11T23:34:27.388Z,100693.00
2019-02-11T23:36:32.690Z,100689.00
2019-02-11T23:38:37.676Z,100672.00
2019-02-11T23:40:42.624Z,100675.00
2019-02-11T23:42:48.699Z,100668.00
2019-02-11T23:44:53.763Z,100676.00
2019-02-11T23:46:58.981Z,100664.00
2019-02-11T23:49:04.149Z,100662.00
2019-02-11T23:51:09.019Z,100675.00
2019-02-11T23:53:14.310Z,100692.00
2019-02-11T23:55:20.209Z,100685.00
2019-02-11T23:57:25.062Z,100686.00
2019-02-11T23:59:29.935Z,100703.00
